Time,TemperatureF,DewpointF,PressureIn,WindDirection,WindDirectionDegrees,WindSpeedMPH,WindSpeedGustMPH,Humidity,HourlyPrecipIn,Conditions,Clouds,dailyrainin,SoftwareType,DateUTC
2013-03-14 00:00:00,37.0,28.8,29.84,West,273,6.0,9.0,72,0.00,,,0.00,Wunderground v.1.15,2013-03-14 04:00:00,
2013-03-14 00:04:00,36.9,28.7,29.84,WNW,302,5.0,9.0,72,0.00,,,0.00,Wunderground v.1.15,2013-03-14 04:04:00,
2013-03-14 00:09:00,36.9,29.1,29.84,NW,304,4.0,9.0,73,0.00,,,0.00,Wunderground v.1.15,2013-03-14 04:09:00,
2013-03-14 00:14:00,36.7,28.9,29.84,West,275,4.0,6.0,73,0.00,,,0.00,Wunderground v.1.15,2013-03-14 04:14:00,
2013-03-14 00:19:00,36.5,28.7,29.84,WSW,257,5.0,7.0,73,0.00,,,0.00,Wunderground v.1.15,2013-03-14 04:19:00,
2013-03-14 00:24:00,36.4,28.9,29.84,West,278,5.0,10.0,74,0.00,,,0.00,Wunderground v.1.15,2013-03-14 04:24:00,
2013-03-14 00:30:00,36.3,28.8,29.84,WSW,256,4.0,4.0,74,0.00,,,0.00,Wunderground v.1.15,2013-03-14 04:30:00,
2013-03-14 00:35:00,36.1,28.6,29.84,West,272,4.0,9.0,74,0.00,,,0.00,Wunderground v.1.15,2013-03-14 04:35:00,
2013-03-14 00:41:00,36.1,28.6,29.84,West,263,5.0,6.0,74,0.00,,,0.00,Wunderground v.1.15,2013-03-14 04:41:00,
2013-03-14 00:47:00,36.0,28.5,29.84,WNW,303,5.0,8.0,74,0.00,,,0.00,Wunderground v.1.15,2013-03-14 04:47:00,
2013-03-14 00:52:00,36.0,28.5,29.84,West,260,4.0,4.0,74,0.00,,,0.00,Wunderground v.1.15,2013-03-14 04:52:00,
2013-03-14 00:57:00,36.0,28.5,29.84,West,281,4.0,10.0,74,0.00,,,0.00,Wunderground v.1.15,2013-03-14 04:57:00,
2013-03-14 01:03:00,36.1,28.6,29.84,WSW,248,5.0,11.0,74,0.00,,,0.00,Wunderground v.1.15,2013-03-14 05:03:00,
2013-03-14 01:08:00,36.1,28.3,29.84,WNW,291,5.0,13.0,73,0.00,,,0.00,Wunderground v.1.15,2013-03-14 05:08:00,
2013-03-14 01:14:00,36.1,28.3,29.84,WNW,293,6.0,10.0,73,0.00,,,0.00,Wunderground v.1.15,2013-03-14 05:14:00,
2013-03-14 01:19:00,36.1,28.3,29.84,WNW,301,6.0,10.0,73,0.00,,,0.00,Wunderground v.1.15,2013-03-14 05:19:00,
2013-03-14 01:24:00,36.1,28.6,29.84,West,273,6.0,13.0,74,0.00,,,0.00,Wunderground v.1.15,2013-03-14 05:24:00,
2013-03-14 01:29:00,36.0,28.2,29.84,WSW,249,8.0,15.0,73,0.00,,,0.00,Wunderground v.1.15,2013-03-14 05:29:00,
2013-03-14 01:35:00,35.9,28.4,29.85,West,280,8.0,13.0,74,0.00,,,0.00,Wunderground v.1.15,2013-03-14 05:35:00,
2013-03-14 01:41:00,35.6,27.8,29.85,WNW,292,8.0,12.0,73,0.00,,,0.00,Wunderground v.1.15,2013-03-14 05:41:00,
2013-03-14 01:46:00,35.2,28.1,29.85,WNW,296,8.0,12.0,75,0.00,,,0.00,Wunderground v.1.15,2013-03-14 05:46:00,
2013-03-14 01:51:00,34.6,28.1,29.86,WNW,283,8.0,15.0,77,0.00,,,0.00,Wunderground v.1.15,2013-03-14 05:51:00,
2013-03-14 01:56:00,34.0,27.9,29.86,WNW,302,9.0,15.0,78,0.00,,,0.00,Wunderground v.1.15,2013-03-14 05:56:00,
2013-03-14 02:02:00,33.6,26.8,29.86,WNW,286,8.0,9.0,76,0.00,,,0.00,Wunderground v.1.15,2013-03-14 06:02:00,
2013-03-14 02:08:00,33.4,25.7,29.86,NW,321,7.0,10.0,73,0.00,,,0.00,Wunderground v.1.15,2013-03-14 06:08:00,
2013-03-14 02:14:00,33.3,25.6,29.86,WNW,292,5.0,7.0,73,0.00,,,0.00,Wunderground v.1.15,2013-03-14 06:14:00,
2013-03-14 02:19:00,33.3,24.9,29.86,WNW,298,5.0,11.0,71,0.00,,,0.00,Wunderground v.1.15,2013-03-14 06:19:00,
2013-03-14 02:25:00,33.3,24.9,29.86,North,360,6.0,10.0,71,0.00,,,0.00,Wunderground v.1.15,2013-03-14 06:25:00,
2013-03-14 02:30:00,33.2,24.5,29.86,WNW,284,6.0,9.0,70,0.00,,,0.00,Wunderground v.1.15,2013-03-14 06:30:00,
2013-03-14 02:36:00,33.3,24.2,29.86,NW,317,6.0,9.0,69,0.00,,,0.00,Wunderground v.1.15,2013-03-14 06:36:00,
2013-03-14 02:42:00,33.3,24.2,29.85,WNW,302,5.0,9.0,69,0.00,,,0.00,Wunderground v.1.15,2013-03-14 06:42:00,
2013-03-14 02:48:00,33.3,24.2,29.85,WNW,291,4.0,9.0,69,0.00,,,0.00,Wunderground v.1.15,2013-03-14 06:48:00,
2013-03-14 02:53:00,33.2,24.1,29.86,WNW,302,3.0,7.0,69,0.00,,,0.00,Wunderground v.1.15,2013-03-14 06:53:00,
2013-03-14 02:58:00,33.2,23.8,29.85,WNW,286,3.0,7.0,68,0.00,,,0.00,Wunderground v.1.15,2013-03-14 06:58:00,
2013-03-14 03:04:00,33.2,23.4,29.85,WSW,244,5.0,9.0,67,0.00,,,0.00,Wunderground v.1.15,2013-03-14 07:04:00,
2013-03-14 03:09:00,33.0,22.5,29.85,WNW,292,6.0,13.0,65,0.00,,,0.00,Wunderground v.1.15,2013-03-14 07:09:00,
2013-03-14 03:14:00,33.0,22.1,29.85,WNW,291,6.0,7.0,64,0.00,,,0.00,Wunderground v.1.15,2013-03-14 07:14:00,
2013-03-14 03:20:00,32.9,22.0,29.85,West,279,5.0,8.0,64,0.00,,,0.00,Wunderground v.1.15,2013-03-14 07:20:00,
2013-03-14 03:25:00,32.9,22.0,29.85,West,280,5.0,12.0,64,0.00,,,0.00,Wunderground v.1.15,2013-03-14 07:25:00,
2013-03-14 03:30:00,32.8,22.0,29.84,WNW,288,6.0,7.0,64,0.00,,,0.00,Wunderground v.1.15,2013-03-14 07:30:00,
2013-03-14 03:39:00,32.7,21.5,29.85,NW,311,6.0,8.0,63,0.00,,,0.00,Wunderground v.1.15,2013-03-14 07:39:00,
2013-03-14 03:45:00,32.7,20.3,29.84,WNW,298,8.0,13.0,60,0.00,,,0.00,Wunderground v.1.15,2013-03-14 07:45:00,
2013-03-14 03:50:00,32.6,19.8,29.85,NW,307,10.0,17.0,59,0.00,,,0.00,Wunderground v.1.15,2013-03-14 07:50:00,
2013-03-14 03:55:00,32.5,19.3,29.85,WNW,287,9.0,17.0,58,0.00,,,0.00,Wunderground v.1.15,2013-03-14 07:55:00,
2013-03-14 04:00:00,32.4,18.8,29.84,WNW,300,11.0,14.0,57,0.00,,,0.00,Wunderground v.1.15,2013-03-14 08:00:00,
2013-03-14 04:06:00,32.2,18.7,29.84,West,275,11.0,14.0,57,0.00,,,0.00,Wunderground v.1.15,2013-03-14 08:06:00,
2013-03-14 04:12:00,32.0,18.9,29.84,North,349,9.0,10.0,58,0.00,,,0.00,Wunderground v.1.15,2013-03-14 08:12:00,
2013-03-14 04:17:00,31.9,18.8,29.84,NW,320,9.0,12.0,58,0.00,,,0.00,Wunderground v.1.15,2013-03-14 08:17:00,
2013-03-14 04:22:00,31.8,19.1,29.84,NNW,344,8.0,8.0,59,0.00,,,0.00,Wunderground v.1.15,2013-03-14 08:22:00,
2013-03-14 04:28:00,31.7,19.0,29.84,West,259,8.0,17.0,59,0.00,,,0.00,Wunderground v.1.15,2013-03-14 08:28:00,
2013-03-14 05:00:00,30.9,17.4,29.85,WNW,294,9.0,9.0,57,0.00,,,0.00,Wunderground v.1.15,2013-03-14 09:00:00,
2013-03-14 05:06:00,30.7,17.7,29.85,NW,320,9.0,10.0,58,0.00,,,0.00,Wunderground v.1.15,2013-03-14 09:06:00,
2013-03-14 05:12:00,30.5,17.9,29.85,West,260,8.0,8.0,59,0.00,,,0.00,Wunderground v.1.15,2013-03-14 09:12:00,
2013-03-14 05:17:00,30.4,17.8,29.85,SW,235,7.0,15.0,59,0.00,,,0.00,Wunderground v.1.15,2013-03-14 09:17:00,
2013-03-14 05:22:00,30.3,17.7,29.85,West,276,7.0,8.0,59,0.00,,,0.00,Wunderground v.1.15,2013-03-14 09:22:00,
2013-03-14 05:28:00,30.1,17.5,29.85,West,266,7.0,12.0,59,0.00,,,0.00,Wunderground v.1.15,2013-03-14 09:28:00,
2013-03-14 05:33:00,30.0,17.0,29.86,WSW,238,8.0,16.0,58,0.00,,,0.00,Wunderground v.1.15,2013-03-14 09:33:00,
2013-03-14 05:38:00,30.0,17.0,29.86,NW,306,8.0,16.0,58,0.00,,,0.00,Wunderground v.1.15,2013-03-14 09:38:00,
2013-03-14 05:44:00,29.9,17.3,29.86,West,268,8.0,18.0,59,0.00,,,0.00,Wunderground v.1.15,2013-03-14 09:44:00,
2013-03-14 05:49:00,29.8,17.2,29.86,WNW,292,8.0,18.0,59,0.00,,,0.00,Wunderground v.1.15,2013-03-14 09:49:00,
2013-03-14 05:55:00,29.8,17.2,29.86,West,271,7.0,8.0,59,0.00,,,0.00,Wunderground v.1.15,2013-03-14 09:55:00,
2013-03-14 06:00:00,29.7,16.7,29.86,WNW,295,6.0,7.0,58,0.00,,,0.00,Wunderground v.1.15,2013-03-14 10:00:00,
2013-03-14 06:06:00,29.7,16.7,29.86,WNW,293,6.0,11.0,58,0.00,,,0.00,Wunderground v.1.15,2013-03-14 10:06:00,
2013-03-14 06:12:00,29.6,16.2,29.86,WNW,287,7.0,11.0,57,0.00,,,0.00,Wunderground v.1.15,2013-03-14 10:12:00,
2013-03-14 06:17:00,29.6,16.2,29.86,WNW,284,7.0,12.0,57,0.00,,,0.00,Wunderground v.1.15,2013-03-14 10:17:00,
2013-03-14 06:22:00,29.6,15.4,29.86,West,273,7.0,8.0,55,0.00,,,0.00,Wunderground v.1.15,2013-03-14 10:22:00,
2013-03-14 06:28:00,29.6,15.8,29.86,NW,304,8.0,13.0,56,0.00,,,0.00,Wunderground v.1.15,2013-03-14 10:28:00,
2013-03-14 06:34:00,29.6,15.8,29.86,NW,318,6.0,8.0,56,0.00,,,0.00,Wunderground v.1.15,2013-03-14 10:34:00,
2013-03-14 06:39:00,29.7,15.5,29.86,West,265,6.0,11.0,55,0.00,,,0.00,Wunderground v.1.15,2013-03-14 10:39:00,
2013-03-14 06:45:00,29.7,15.9,29.86,WNW,298,5.0,7.0,56,0.00,,,0.00,Wunderground v.1.15,2013-03-14 10:45:00,
2013-03-14 06:50:00,29.7,15.5,29.86,West,278,6.0,9.0,55,0.00,,,0.00,Wunderground v.1.15,2013-03-14 10:50:00,
2013-03-14 06:55:00,29.6,15.4,29.86,WNW,283,10.0,14.0,55,0.00,,,0.00,Wunderground v.1.15,2013-03-14 10:55:00,
2013-03-14 07:00:00,29.5,15.3,29.86,West,265,11.0,12.0,55,0.00,,,0.00,Wunderground v.1.15,2013-03-14 11:00:00,
2013-03-14 07:06:00,29.5,15.3,29.86,West,278,11.0,14.0,55,0.00,,,0.00,Wunderground v.1.15,2013-03-14 11:06:00,
2013-03-14 07:11:00,29.5,15.7,29.86,West,267,11.0,16.0,56,0.00,,,0.00,Wunderground v.1.15,2013-03-14 11:11:00,
2013-03-14 07:17:00,29.4,15.6,29.87,WNW,296,9.0,16.0,56,0.00,,,0.00,Wunderground v.1.15,2013-03-14 11:17:00,
2013-03-14 07:22:00,29.4,15.2,29.87,WNW,292,8.0,12.0,55,0.00,,,0.00,Wunderground v.1.15,2013-03-14 11:22:00,
2013-03-14 07:28:00,29.3,15.5,29.87,West,277,10.0,14.0,56,0.00,,,0.00,Wunderground v.1.15,2013-03-14 11:28:00,
2013-03-14 07:34:00,29.2,15.4,29.87,NW,311,9.0,10.0,56,0.00,,,0.00,Wunderground v.1.15,2013-03-14 11:34:00,
2013-03-14 07:39:00,29.2,15.4,29.87,WNW,294,8.0,14.0,56,0.00,,,0.00,Wunderground v.1.15,2013-03-14 11:39:00,
2013-03-14 07:45:00,29.1,15.3,29.87,WSW,244,10.0,15.0,56,0.00,,,0.00,Wunderground v.1.15,2013-03-14 11:45:00,
2013-03-14 07:50:00,29.1,15.3,29.88,WNW,299,9.0,12.0,56,0.00,,,0.00,Wunderground v.1.15,2013-03-14 11:50:00,
2013-03-14 07:56:00,29.2,16.2,29.88,West,277,7.0,12.0,58,0.00,,,0.00,Wunderground v.1.15,2013-03-14 11:56:00,
2013-03-14 08:02:00,29.1,16.1,29.88,NW,311,8.0,11.0,58,0.00,,,0.00,Wunderground v.1.15,2013-03-14 12:02:00,
2013-03-14 08:08:00,28.9,16.0,29.89,WNW,298,9.0,11.0,58,0.00,,,0.00,Wunderground v.1.15,2013-03-14 12:08:00,
2013-03-14 08:14:00,28.8,16.3,29.89,WNW,302,8.0,9.0,59,0.00,,,0.00,Wunderground v.1.15,2013-03-14 12:14:00,
2013-03-14 08:19:00,28.7,16.6,29.89,West,279,8.0,17.0,60,0.00,,,0.00,Wunderground v.1.15,2013-03-14 12:19:00,
2013-03-14 08:24:00,28.3,15.0,29.89,West,259,10.0,15.0,57,0.00,,,0.00,Wunderground v.1.15,2013-03-14 12:24:00,
2013-03-14 08:30:00,27.9,13.4,29.90,NW,313,12.0,20.0,54,0.00,,,0.00,Wunderground v.1.15,2013-03-14 12:30:00,
2013-03-14 08:36:00,27.4,12.5,29.90,WNW,285,15.0,21.0,53,0.00,,,0.00,Wunderground v.1.15,2013-03-14 12:36:00,
2013-03-14 08:41:00,27.1,12.2,29.90,WNW,303,14.0,15.0,53,0.00,,,0.00,Wunderground v.1.15,2013-03-14 12:41:00,
2013-03-14 08:47:00,27.0,11.7,29.90,NW,312,12.0,16.0,52,0.00,,,0.00,Wunderground v.1.15,2013-03-14 12:47:00,
2013-03-14 08:52:00,27.0,12.5,29.90,West,276,10.0,10.0,54,0.00,,,0.00,Wunderground v.1.15,2013-03-14 12:52:00,
2013-03-14 08:57:00,27.0,11.7,29.91,East,92,10.0,12.0,52,0.00,,,0.00,Wunderground v.1.15,2013-03-14 12:57:00,
2013-03-14 09:02:00,27.1,11.8,29.91,WNW,297,11.0,11.0,52,0.00,,,0.00,Wunderground v.1.15,2013-03-14 13:02:00,
2013-03-14 09:08:00,27.6,11.4,29.91,WNW,288,10.0,18.0,50,0.00,,,0.00,Wunderground v.1.15,2013-03-14 13:08:00,
2013-03-14 09:14:00,27.4,11.2,29.91,WNW,283,13.0,22.0,50,0.00,,,0.00,Wunderground v.1.15,2013-03-14 13:14:00,
2013-03-14 09:19:00,27.4,11.6,29.90,WNW,301,14.0,22.0,51,0.00,,,0.00,Wunderground v.1.15,2013-03-14 13:19:00,
2013-03-14 09:25:00,27.7,11.5,29.91,West,274,9.0,20.0,50,0.00,,,0.00,Wunderground v.1.15,2013-03-14 13:25:00,
2013-03-14 09:31:00,27.8,11.1,29.91,WNW,287,11.0,19.0,49,0.00,,,0.00,Wunderground v.1.15,2013-03-14 13:31:00,
2013-03-14 09:36:00,27.9,11.2,29.91,WNW,294,13.0,21.0,49,0.00,,,0.00,Wunderground v.1.15,2013-03-14 13:36:00,
2013-03-14 09:42:00,28.0,11.3,29.91,WNW,298,14.0,17.0,49,0.00,,,0.00,Wunderground v.1.15,2013-03-14 13:42:00,
2013-03-14 09:47:00,28.2,11.5,29.91,NW,316,13.0,18.0,49,0.00,,,0.00,Wunderground v.1.15,2013-03-14 13:47:00,
2013-03-14 09:53:00,28.6,11.8,29.91,WSW,246,9.0,14.0,49,0.00,,,0.00,Wunderground v.1.15,2013-03-14 13:53:00,
2013-03-14 09:59:00,29.0,12.2,29.91,WNW,299,9.0,14.0,49,0.00,,,0.00,Wunderground v.1.15,2013-03-14 13:59:00,
2013-03-14 10:05:00,29.0,11.3,29.91,WNW,291,10.0,16.0,47,0.00,,,0.00,Wunderground v.1.15,2013-03-14 14:05:00,
2013-03-14 10:10:00,29.2,11.9,29.90,WNW,290,10.0,14.0,48,0.00,,,0.00,Wunderground v.1.15,2013-03-14 14:10:00,
2013-03-14 10:15:00,29.4,11.6,29.91,NW,315,11.0,15.0,47,0.00,,,0.00,Wunderground v.1.15,2013-03-14 14:15:00,
2013-03-14 10:21:00,29.5,12.2,29.91,NW,321,10.0,11.0,48,0.00,,,0.00,Wunderground v.1.15,2013-03-14 14:21:00,
2013-03-14 10:26:00,28.3,11.1,29.91,North,360,9.0,15.0,48,0.00,,,0.00,Wunderground v.1.15,2013-03-14 14:26:00,
2013-03-14 10:32:00,27.9,8.3,29.91,NW,313,11.0,11.0,43,0.00,,,0.00,Wunderground v.1.15,2013-03-14 14:32:00,
2013-03-14 10:37:00,27.9,8.3,29.91,West,275,11.0,15.0,43,0.00,,,0.00,Wunderground v.1.15,2013-03-14 14:37:00,
2013-03-14 10:43:00,28.2,9.0,29.91,West,266,10.0,12.0,44,0.00,,,0.00,Wunderground v.1.15,2013-03-14 14:43:00,
2013-03-14 10:48:00,28.4,9.7,29.91,NNW,346,9.0,15.0,45,0.00,,,0.00,Wunderground v.1.15,2013-03-14 14:48:00,
2013-03-14 10:54:00,28.6,9.4,29.90,NW,322,10.0,20.0,44,0.00,,,0.00,Wunderground v.1.15,2013-03-14 14:54:00,
2013-03-14 10:59:00,28.3,9.1,29.90,NW,316,10.0,20.0,44,0.00,,,0.00,Wunderground v.1.15,2013-03-14 14:59:00,
2013-03-14 11:05:00,28.7,10.0,29.90,NW,325,8.0,16.0,45,0.00,,,0.00,Wunderground v.1.15,2013-03-14 15:05:00,
2013-03-14 11:10:00,28.5,9.3,29.90,WSW,258,9.0,19.0,44,0.00,,,0.00,Wunderground v.1.15,2013-03-14 15:10:00,
2013-03-14 11:15:00,28.0,9.9,29.90,NW,315,11.0,19.0,46,0.00,,,0.00,Wunderground v.1.15,2013-03-14 15:15:00,
2013-03-14 11:20:00,28.1,9.9,29.90,NNE,12,11.0,11.0,46,0.00,,,0.00,Wunderground v.1.15,2013-03-14 15:20:00,
2013-03-14 11:25:00,28.2,9.5,29.91,NNW,340,11.0,18.0,45,0.00,,,0.00,Wunderground v.1.15,2013-03-14 15:25:00,
2013-03-14 11:31:00,28.3,9.6,29.90,NW,321,11.0,11.0,45,0.00,,,0.00,Wunderground v.1.15,2013-03-14 15:31:00,
2013-03-14 11:37:00,28.8,10.1,29.90,NNW,337,10.0,18.0,45,0.00,,,0.00,Wunderground v.1.15,2013-03-14 15:37:00,
2013-03-14 11:42:00,29.0,9.8,29.90,WNW,293,10.0,11.0,44,0.00,,,0.00,Wunderground v.1.15,2013-03-14 15:42:00,
2013-03-14 11:49:00,28.8,10.1,29.90,WNW,286,10.0,16.0,45,0.00,,,0.00,Wunderground v.1.15,2013-03-14 15:49:00,
2013-03-14 11:54:00,28.9,11.2,29.90,West,273,9.0,14.0,47,0.00,,,0.00,Wunderground v.1.15,2013-03-14 15:54:00,
2013-03-14 12:00:00,29.5,14.5,29.89,WNW,299,9.0,12.0,53,0.00,,,0.00,Wunderground v.1.15,2013-03-14 16:00:00,
2013-03-14 12:06:00,29.6,15.0,29.89,NW,326,11.0,12.0,54,0.00,,,0.00,Wunderground v.1.15,2013-03-14 16:06:00,
2013-03-14 12:12:00,30.0,15.3,29.90,WNW,301,11.0,18.0,54,0.00,,,0.00,Wunderground v.1.15,2013-03-14 16:12:00,
2013-03-14 12:17:00,29.9,14.4,29.89,NNW,345,12.0,20.0,52,0.00,,,0.00,Wunderground v.1.15,2013-03-14 16:17:00,
2013-03-14 12:22:00,29.8,14.7,29.89,WNW,297,13.0,14.0,53,0.00,,,0.00,Wunderground v.1.15,2013-03-14 16:22:00,
2013-03-14 12:27:00,30.0,15.3,29.89,West,275,10.0,14.0,54,0.00,,,0.00,Wunderground v.1.15,2013-03-14 16:27:00,
2013-03-14 12:32:00,30.4,15.7,29.89,WNW,294,9.0,12.0,54,0.00,,,0.00,Wunderground v.1.15,2013-03-14 16:32:00,
2013-03-14 12:37:00,30.8,15.7,29.89,WNW,288,10.0,16.0,53,0.00,,,0.00,Wunderground v.1.15,2013-03-14 16:37:00,
2013-03-14 12:43:00,30.5,14.9,29.89,SSW,193,11.0,17.0,52,0.00,,,0.00,Wunderground v.1.15,2013-03-14 16:43:00,
2013-03-14 12:49:00,31.0,15.0,29.88,WNW,303,13.0,20.0,51,0.00,,,0.00,Wunderground v.1.15,2013-03-14 16:49:00,
2013-03-14 12:54:00,31.4,15.3,29.88,WNW,282,12.0,15.0,51,0.00,,,0.00,Wunderground v.1.15,2013-03-14 16:54:00,
2013-03-14 12:59:00,32.1,16.4,29.87,WNW,282,9.0,15.0,52,0.00,,,0.00,Wunderground v.1.15,2013-03-14 16:59:00,
2013-03-14 13:05:00,32.4,15.3,29.88,West,267,8.0,11.0,49,0.00,,,0.00,Wunderground v.1.15,2013-03-14 17:05:00,
2013-03-14 13:11:00,32.5,16.4,29.87,NW,317,8.0,8.0,51,0.00,,,0.00,Wunderground v.1.15,2013-03-14 17:11:00,
2013-03-14 13:17:00,32.5,15.9,29.87,WNW,303,8.0,14.0,50,0.00,,,0.00,Wunderground v.1.15,2013-03-14 17:17:00,
2013-03-14 13:22:00,32.3,15.3,29.87,WSW,244,11.0,27.0,49,0.00,,,0.00,Wunderground v.1.15,2013-03-14 17:22:00,
2013-03-14 13:28:00,32.3,16.6,29.87,WNW,287,14.0,27.0,52,0.00,,,0.00,Wunderground v.1.15,2013-03-14 17:28:00,
2013-03-14 13:33:00,32.8,17.1,29.86,WNW,282,12.0,16.0,52,0.00,,,0.00,Wunderground v.1.15,2013-03-14 17:33:00,
2013-03-14 13:38:00,33.3,18.0,29.86,NW,311,12.0,20.0,53,0.00,,,0.00,Wunderground v.1.15,2013-03-14 17:38:00,
2013-03-14 13:43:00,33.5,16.8,29.86,WNW,288,13.0,22.0,50,0.00,,,0.00,Wunderground v.1.15,2013-03-14 17:43:00,
2013-03-14 13:49:00,33.4,17.2,29.86,NW,323,12.0,22.0,51,0.00,,,0.00,Wunderground v.1.15,2013-03-14 17:49:00,
2013-03-14 13:55:00,33.4,16.7,29.86,West,277,12.0,18.0,50,0.00,,,0.00,Wunderground v.1.15,2013-03-14 17:55:00,
2013-03-14 14:00:00,32.9,15.8,29.86,NW,311,12.0,12.0,49,0.00,,,0.00,Wunderground v.1.15,2013-03-14 18:00:00,
2013-03-14 14:06:00,33.6,17.4,29.85,West,277,11.0,13.0,51,0.00,,,0.00,Wunderground v.1.15,2013-03-14 18:06:00,
2013-03-14 14:12:00,34.2,16.5,29.85,West,263,12.0,32.0,48,0.00,,,0.00,Wunderground v.1.15,2013-03-14 18:12:00,
2013-03-14 14:18:00,34.6,16.4,29.85,WNW,301,12.0,32.0,47,0.00,,,0.00,Wunderground v.1.15,2013-03-14 18:18:00,
2013-03-14 14:23:00,34.7,17.0,29.85,WNW,287,11.0,18.0,48,0.00,,,0.00,Wunderground v.1.15,2013-03-14 18:23:00,
2013-03-14 14:29:00,34.9,16.7,29.84,South,169,12.0,18.0,47,0.00,,,0.00,Wunderground v.1.15,2013-03-14 18:29:00,
2013-03-14 14:35:00,35.4,17.1,29.84,NW,326,8.0,28.0,47,0.00,,,0.00,Wunderground v.1.15,2013-03-14 18:35:00,
2013-03-14 14:40:00,35.3,17.1,29.84,West,280,10.0,10.0,47,0.00,,,0.00,Wunderground v.1.15,2013-03-14 18:40:00,
2013-03-14 14:45:00,35.3,16.6,29.84,NNW,334,11.0,11.0,46,0.00,,,0.00,Wunderground v.1.15,2013-03-14 18:45:00,
2013-03-14 14:51:00,35.1,17.4,29.84,West,273,9.0,9.0,48,0.00,,,0.00,Wunderground v.1.15,2013-03-14 18:51:00,
2013-03-14 14:57:00,34.9,16.7,29.84,West,265,10.0,28.0,47,0.00,,,0.00,Wunderground v.1.15,2013-03-14 18:57:00,
2013-03-14 15:03:00,34.7,17.0,29.84,WNW,289,12.0,14.0,48,0.00,,,0.00,Wunderground v.1.15,2013-03-14 19:03:00,
2013-03-14 15:08:00,34.9,16.7,29.84,West,281,11.0,23.0,47,0.00,,,0.00,Wunderground v.1.15,2013-03-14 19:08:00,
2013-03-14 15:14:00,34.9,16.2,29.84,West,277,14.0,19.0,46,0.00,,,0.00,Wunderground v.1.15,2013-03-14 19:14:00,
2013-03-14 15:19:00,35.3,16.6,29.84,WNW,286,12.0,19.0,46,0.00,,,0.00,Wunderground v.1.15,2013-03-14 19:19:00,
2013-03-14 15:24:00,35.6,16.3,29.84,NW,309,10.0,19.0,45,0.00,,,0.00,Wunderground v.1.15,2013-03-14 19:24:00,
2013-03-14 15:29:00,35.7,16.9,29.84,WNW,293,11.0,23.0,46,0.00,,,0.00,Wunderground v.1.15,2013-03-14 19:29:00,
2013-03-14 15:35:00,35.3,15.5,29.84,West,269,13.0,22.0,44,0.00,,,0.00,Wunderground v.1.15,2013-03-14 19:35:00,
2013-03-14 15:41:00,35.5,16.7,29.83,WNW,302,11.0,15.0,46,0.00,,,0.00,Wunderground v.1.15,2013-03-14 19:41:00,
2013-03-14 15:47:00,36.1,16.8,29.83,WSW,238,10.0,16.0,45,0.00,,,0.00,Wunderground v.1.15,2013-03-14 19:47:00,
2013-03-14 15:52:00,36.3,17.0,29.83,NW,319,10.0,19.0,45,0.00,,,0.00,Wunderground v.1.15,2013-03-14 19:52:00,
2013-03-14 15:58:00,36.5,16.1,29.83,NW,309,10.0,19.0,43,0.00,,,0.00,Wunderground v.1.15,2013-03-14 19:58:00,
2013-03-14 16:03:00,36.2,16.4,29.83,NW,304,11.0,15.0,44,0.00,,,0.00,Wunderground v.1.15,2013-03-14 20:03:00,
2013-03-14 16:09:00,36.3,15.9,29.83,NW,323,10.0,20.0,43,0.00,,,0.00,Wunderground v.1.15,2013-03-14 20:09:00,
2013-03-14 16:15:00,36.5,16.6,29.83,WNW,282,10.0,17.0,44,0.00,,,0.00,Wunderground v.1.15,2013-03-14 20:15:00,
2013-03-14 16:20:00,36.5,15.6,29.83,North,355,11.0,11.0,42,0.00,,,0.00,Wunderground v.1.15,2013-03-14 20:20:00,
2013-03-14 16:25:00,36.5,16.1,29.83,West,272,10.0,17.0,43,0.00,,,0.00,Wunderground v.1.15,2013-03-14 20:25:00,
2013-03-14 16:30:00,36.6,15.6,29.83,WNW,300,10.0,23.0,42,0.00,,,0.00,Wunderground v.1.15,2013-03-14 20:30:00,
2013-03-14 16:36:00,36.9,17.0,29.83,WNW,300,8.0,23.0,44,0.00,,,0.00,Wunderground v.1.15,2013-03-14 20:36:00,
2013-03-14 16:42:00,36.9,15.9,29.83,WSW,252,6.0,9.0,42,0.00,,,0.00,Wunderground v.1.15,2013-03-14 20:42:00,
2013-03-14 16:48:00,36.8,15.8,29.83,NNW,327,8.0,20.0,42,0.00,,,0.00,Wunderground v.1.15,2013-03-14 20:48:00,
2013-03-14 16:54:00,36.7,15.7,29.83,NW,313,8.0,9.0,42,0.00,,,0.00,Wunderground v.1.15,2013-03-14 20:54:00,
2013-03-14 16:59:00,36.9,15.4,29.83,North,360,7.0,13.0,41,0.00,,,0.00,Wunderground v.1.15,2013-03-14 20:59:00,
2013-03-14 17:04:00,36.9,15.9,29.82,North,351,7.0,16.0,42,0.00,,,0.00,Wunderground v.1.15,2013-03-14 21:04:00,
2013-03-14 17:09:00,36.9,15.4,29.82,NNW,330,7.0,16.0,41,0.00,,,0.00,Wunderground v.1.15,2013-03-14 21:09:00,
2013-03-14 17:15:00,37.1,15.0,29.82,NW,309,6.0,14.0,40,0.00,,,0.00,Wunderground v.1.15,2013-03-14 21:15:00,
2013-03-14 17:20:00,37.1,15.5,29.82,NW,308,7.0,8.0,41,0.00,,,0.00,Wunderground v.1.15,2013-03-14 21:20:00,
2013-03-14 17:27:00,37.0,14.9,29.82,WNW,284,7.0,10.0,40,0.00,,,0.00,Wunderground v.1.15,2013-03-14 21:27:00,
2013-03-14 17:33:00,37.2,15.1,29.82,WNW,290,6.0,11.0,40,0.00,,,0.00,Wunderground v.1.15,2013-03-14 21:33:00,
2013-03-14 17:38:00,37.3,14.6,29.82,NNW,338,5.0,11.0,39,0.00,,,0.00,Wunderground v.1.15,2013-03-14 21:38:00,
2013-03-14 17:44:00,37.2,14.5,29.82,WNW,290,7.0,12.0,39,0.00,,,0.00,Wunderground v.1.15,2013-03-14 21:44:00,
2013-03-14 17:49:00,37.0,13.7,29.82,NW,304,9.0,20.0,38,0.00,,,0.00,Wunderground v.1.15,2013-03-14 21:49:00,
2013-03-14 17:54:00,37.1,13.2,29.82,West,272,9.0,14.0,37,0.00,,,0.00,Wunderground v.1.15,2013-03-14 21:54:00,
2013-03-14 18:00:00,37.1,12.6,29.82,NNW,336,9.0,20.0,36,0.00,,,0.00,Wunderground v.1.15,2013-03-14 22:00:00,
2013-03-14 18:06:00,36.9,11.1,29.83,WNW,296,11.0,20.0,34,0.00,,,0.00,Wunderground v.1.15,2013-03-14 22:06:00,
2013-03-14 18:12:00,36.6,9.5,29.83,WNW,296,12.0,13.0,32,0.00,,,0.00,Wunderground v.1.15,2013-03-14 22:12:00,
2013-03-14 18:18:00,36.3,9.9,29.83,WNW,292,11.0,18.0,33,0.00,,,0.00,Wunderground v.1.15,2013-03-14 22:18:00,
2013-03-14 18:23:00,36.2,9.8,29.83,WNW,287,10.0,17.0,33,0.00,,,0.00,Wunderground v.1.15,2013-03-14 22:23:00,
2013-03-14 18:29:00,36.1,9.7,29.83,WNW,289,11.0,17.0,33,0.00,,,0.00,Wunderground v.1.15,2013-03-14 22:29:00,
2013-03-14 18:35:00,36.0,10.3,29.84,WNW,302,9.0,13.0,34,0.00,,,0.00,Wunderground v.1.15,2013-03-14 22:35:00,
2013-03-14 18:40:00,35.9,10.2,29.84,West,281,8.0,8.0,34,0.00,,,0.00,Wunderground v.1.15,2013-03-14 22:40:00,
2013-03-14 18:45:00,35.9,10.2,29.84,WSW,250,6.0,11.0,34,0.00,,,0.00,Wunderground v.1.15,2013-03-14 22:45:00,
2013-03-14 18:50:00,35.8,10.8,29.84,NW,317,7.0,7.0,35,0.00,,,0.00,Wunderground v.1.15,2013-03-14 22:50:00,
2013-03-14 18:56:00,35.8,10.1,29.84,NNW,334,7.0,11.0,34,0.00,,,0.00,Wunderground v.1.15,2013-03-14 22:56:00,
2013-03-14 19:01:00,35.8,10.8,29.84,NNW,333,5.0,8.0,35,0.00,,,0.00,Wunderground v.1.15,2013-03-14 23:01:00,
2013-03-14 19:06:00,35.7,10.0,29.85,NW,304,5.0,12.0,34,0.00,,,0.00,Wunderground v.1.15,2013-03-14 23:06:00,
2013-03-14 19:11:00,35.6,9.3,29.85,West,281,7.0,13.0,33,0.00,,,0.00,Wunderground v.1.15,2013-03-14 23:11:00,
2013-03-14 19:17:00,35.5,9.2,29.85,North,11,7.0,13.0,33,0.00,,,0.00,Wunderground v.1.15,2013-03-14 23:17:00,
2013-03-14 19:22:00,35.3,9.0,29.85,WNW,294,9.0,21.0,33,0.00,,,0.00,Wunderground v.1.15,2013-03-14 23:22:00,
2013-03-14 19:28:00,35.2,8.9,29.85,NNW,327,9.0,21.0,33,0.00,,,0.00,Wunderground v.1.15,2013-03-14 23:28:00,
2013-03-14 19:33:00,35.1,9.5,29.85,NW,315,7.0,11.0,34,0.00,,,0.00,Wunderground v.1.15,2013-03-14 23:33:00,
2013-03-14 19:38:00,35.0,9.4,29.85,West,277,8.0,11.0,34,0.00,,,0.00,Wunderground v.1.15,2013-03-14 23:38:00,
2013-03-14 19:43:00,34.9,9.3,29.86,NW,311,8.0,13.0,34,0.00,,,0.00,Wunderground v.1.15,2013-03-14 23:43:00,
2013-03-14 19:49:00,34.9,8.7,29.86,WNW,283,8.0,14.0,33,0.00,,,0.00,Wunderground v.1.15,2013-03-14 23:49:00,
2013-03-14 19:54:00,34.8,9.2,29.87,NW,306,7.0,10.0,34,0.00,,,0.00,Wunderground v.1.15,2013-03-14 23:54:00,
2013-03-14 19:59:00,34.6,9.1,29.87,WNW,286,7.0,10.0,34,0.00,,,0.00,Wunderground v.1.15,2013-03-14 23:59:00,
2013-03-14 20:04:00,34.5,9.0,29.87,WNW,297,7.0,9.0,34,0.00,,,0.00,Wunderground v.1.15,2013-03-15 00:04:00,
2013-03-14 20:09:00,34.3,10.1,29.87,West,268,8.0,12.0,36,0.00,,,0.00,Wunderground v.1.15,2013-03-15 00:09:00,
2013-03-14 20:14:00,34.2,9.4,29.87,WNW,300,9.0,16.0,35,0.00,,,0.00,Wunderground v.1.15,2013-03-15 00:14:00,
2013-03-14 20:19:00,34.0,9.8,29.87,NNW,327,8.0,16.0,36,0.00,,,0.00,Wunderground v.1.15,2013-03-15 00:19:00,
2013-03-14 20:25:00,33.9,9.7,29.88,WNW,294,7.0,17.0,36,0.00,,,0.00,Wunderground v.1.15,2013-03-15 00:25:00,
2013-03-14 20:30:00,33.8,10.2,29.88,WNW,290,7.0,9.0,37,0.00,,,0.00,Wunderground v.1.15,2013-03-15 00:30:00,
2013-03-14 20:35:00,33.7,9.5,29.88,West,259,7.0,9.0,36,0.00,,,0.00,Wunderground v.1.15,2013-03-15 00:35:00,
2013-03-14 20:40:00,33.6,10.1,29.88,WNW,300,8.0,8.0,37,0.00,,,0.00,Wunderground v.1.15,2013-03-15 00:40:00,
2013-03-14 20:45:00,33.6,9.4,29.88,WNW,284,9.0,15.0,36,0.00,,,0.00,Wunderground v.1.15,2013-03-15 00:45:00,
2013-03-14 20:51:00,33.5,9.4,29.88,WNW,295,10.0,17.0,36,0.00,,,0.00,Wunderground v.1.15,2013-03-15 00:51:00,
2013-03-14 20:57:00,33.4,9.9,29.88,WNW,294,9.0,17.0,37,0.00,,,0.00,Wunderground v.1.15,2013-03-15 00:57:00,
2013-03-14 21:03:00,33.2,10.3,29.88,WNW,296,6.0,10.0,38,0.00,,,0.00,Wunderground v.1.15,2013-03-15 01:03:00,
2013-03-14 21:09:00,33.1,10.8,29.88,West,281,5.0,10.0,39,0.00,,,0.00,Wunderground v.1.15,2013-03-15 01:09:00,
2013-03-14 21:14:00,33.0,10.7,29.88,WNW,300,5.0,8.0,39,0.00,,,0.00,Wunderground v.1.15,2013-03-15 01:14:00,
2013-03-14 21:20:00,32.9,10.6,29.89,NW,325,6.0,6.0,39,0.00,,,0.00,Wunderground v.1.15,2013-03-15 01:20:00,
2013-03-14 21:25:00,32.8,9.3,29.89,WNW,286,9.0,15.0,37,0.00,,,0.00,Wunderground v.1.15,2013-03-15 01:25:00,
2013-03-14 21:31:00,32.6,9.2,29.89,WNW,294,11.0,19.0,37,0.00,,,0.00,Wunderground v.1.15,2013-03-15 01:31:00,
2013-03-14 21:37:00,32.4,9.6,29.89,NW,309,10.0,19.0,38,0.00,,,0.00,Wunderground v.1.15,2013-03-15 01:37:00,
2013-03-14 21:43:00,32.3,9.5,29.90,NW,317,9.0,10.0,38,0.00,,,0.00,Wunderground v.1.15,2013-03-15 01:43:00,
2013-03-14 21:49:00,32.1,9.3,29.90,NW,304,9.0,17.0,38,0.00,,,0.00,Wunderground v.1.15,2013-03-15 01:49:00,
2013-03-14 21:54:00,32.1,9.3,29.90,West,279,8.0,9.0,38,0.00,,,0.00,Wunderground v.1.15,2013-03-15 01:54:00,
2013-03-14 21:59:00,32.0,9.8,29.90,WNW,298,8.0,15.0,39,0.00,,,0.00,Wunderground v.1.15,2013-03-15 01:59:00,
2013-03-14 22:04:00,31.9,9.7,29.90,WNW,282,8.0,11.0,39,0.00,,,0.00,Wunderground v.1.15,2013-03-15 02:04:00,
2013-03-14 22:10:00,31.9,9.1,29.90,WNW,295,9.0,9.0,38,0.00,,,0.00,Wunderground v.1.15,2013-03-15 02:10:00,
2013-03-14 22:15:00,31.8,9.0,29.91,WNW,303,8.0,15.0,38,0.00,,,0.00,Wunderground v.1.15,2013-03-15 02:15:00,
2013-03-14 22:21:00,31.7,9.5,29.90,WNW,303,7.0,9.0,39,0.00,,,0.00,Wunderground v.1.15,2013-03-15 02:21:00,
2013-03-14 22:26:00,31.7,9.5,29.91,SW,232,5.0,9.0,39,0.00,,,0.00,Wunderground v.1.15,2013-03-15 02:26:00,
2013-03-14 22:32:00,31.6,9.4,29.91,ESE,113,5.0,7.0,39,0.00,,,0.00,Wunderground v.1.15,2013-03-15 02:32:00,
2013-03-14 22:37:00,31.6,9.4,29.91,WNW,286,8.0,11.0,39,0.00,,,0.00,Wunderground v.1.15,2013-03-15 02:37:00,
2013-03-14 22:43:00,31.5,9.4,29.91,NW,304,10.0,16.0,39,0.00,,,0.00,Wunderground v.1.15,2013-03-15 02:43:00,
2013-03-14 22:49:00,31.5,9.4,29.91,West,274,9.0,16.0,39,0.00,,,0.00,Wunderground v.1.15,2013-03-15 02:49:00,
2013-03-14 22:54:00,31.4,9.8,29.91,WNW,296,10.0,23.0,40,0.00,,,0.00,Wunderground v.1.15,2013-03-15 02:54:00,
2013-03-14 23:00:00,31.3,9.7,29.91,NW,309,11.0,11.0,40,0.00,,,0.00,Wunderground v.1.15,2013-03-15 03:00:00,
2013-03-14 23:06:00,31.2,9.1,29.91,WNW,293,9.0,11.0,39,0.00,,,0.00,Wunderground v.1.15,2013-03-15 03:06:00,
2013-03-14 23:11:00,31.2,10.2,29.91,West,281,8.0,10.0,41,0.00,,,0.00,Wunderground v.1.15,2013-03-15 03:11:00,
2013-03-14 23:16:00,31.1,9.6,29.91,NW,309,8.0,12.0,40,0.00,,,0.00,Wunderground v.1.15,2013-03-15 03:16:00,
2013-03-14 23:21:00,31.1,9.6,29.92,WNW,287,7.0,9.0,40,0.00,,,0.00,Wunderground v.1.15,2013-03-15 03:21:00,
2013-03-14 23:27:00,31.0,10.0,29.92,West,278,7.0,13.0,41,0.00,,,0.00,Wunderground v.1.15,2013-03-15 03:27:00,
2013-03-14 23:32:00,31.0,9.5,29.92,WNW,291,9.0,16.0,40,0.00,,,0.00,Wunderground v.1.15,2013-03-15 03:32:00,
2013-03-14 23:37:00,31.0,9.5,29.92,WNW,302,10.0,18.0,40,0.00,,,0.00,Wunderground v.1.15,2013-03-15 03:37:00,
2013-03-14 23:42:00,31.0,9.5,29.92,WNW,298,9.0,10.0,40,0.00,,,0.00,Wunderground v.1.15,2013-03-15 03:42:00,
2013-03-14 23:47:00,30.9,9.4,29.92,WNW,296,8.0,10.0,40,0.00,,,0.00,Wunderground v.1.15,2013-03-15 03:47:00,
2013-03-14 23:52:00,30.8,9.3,29.92,WNW,290,7.0,18.0,40,0.00,,,0.00,Wunderground v.1.15,2013-03-15 03:52:00,
2013-03-14 23:57:00,30.7,9.2,29.92,WNW,290,8.0,18.0,40,0.00,,,0.00,Wunderground v.1.15,2013-03-15 03:57:00,